sensor_id;sensor_type;location;lat;lon;timestamp;P1;durP1;ratioP1;P2;durP2;ratioP2
45728;SDS011;31439;53.512;10.206;2023-05-10T00:02:06;6.57;;;3.17;;
45728;SDS011;31439;53.512;10.206;2023-05-10T00:04:32;5.55;;;3.25;;
45728;SDS011;31439;53.512;10.206;2023-05-10T00:06:58;6.68;;;3.00;;
45728;SDS011;31439;53.512;10.206;2023-05-10T00:09:24;8.50;;;3.58;;
45728;SDS011;31439;53.512;10.206;2023-05-10T00:11:49;4.75;;;3.10;;
45728;SDS011;31439;53.512;10.206;2023-05-10T00:14:15;9.18;;;3.53;;
45728;SDS011;31439;53.512;10.206;2023-05-10T00:16:41;7.22;;;3.30;;
45728;SDS011;31439;53.512;10.206;2023-05-10T00:19:06;6.60;;;3.47;;
45728;SDS011;31439;53.512;10.206;2023-05-10T00:21:32;7.22;;;3.67;;
45728;SDS011;31439;53.512;10.206;2023-05-10T00:23:58;6.45;;;3.35;;
45728;SDS011;31439;53.512;10.206;2023-05-10T00:26:24;5.55;;;3.30;;
45728;SDS011;31439;53.512;10.206;2023-05-10T00:28:50;8.38;;;3.38;;
45728;SDS011;31439;53.512;10.206;2023-05-10T00:31:16;7.13;;;3.33;;
45728;SDS011;31439;53.512;10.206;2023-05-10T00:33:42;5.82;;;3.30;;
45728;SDS011;31439;53.512;10.206;2023-05-10T00:36:07;5.55;;;3.00;;
45728;SDS011;31439;53.512;10.206;2023-05-10T00:38:33;7.80;;;3.05;;
45728;SDS011;31439;53.512;10.206;2023-05-10T00:40:59;5.55;;;3.35;;
45728;SDS011;31439;53.512;10.206;2023-05-10T00:43:25;6.90;;;3.80;;
45728;SDS011;31439;53.512;10.206;2023-05-10T00:45:50;5.25;;;3.53;;
45728;SDS011;31439;53.512;10.206;2023-05-10T00:48:17;5.95;;;3.20;;
45728;SDS011;31439;53.512;10.206;2023-05-10T00:50:43;8.25;;;3.83;;
45728;SDS011;31439;53.512;10.206;2023-05-10T00:53:09;5.20;;;3.35;;
45728;SDS011;31439;53.512;10.206;2023-05-10T00:55:35;6.82;;;3.40;;
45728;SDS011;31439;53.512;10.206;2023-05-10T00:58:02;8.82;;;3.28;;
45728;SDS011;31439;53.512;10.206;2023-05-10T01:00:27;9.55;;;4.13;;
45728;SDS011;31439;53.512;10.206;2023-05-10T01:02:54;4.82;;;3.45;;
45728;SDS011;31439;53.512;10.206;2023-05-10T01:05:20;7.85;;;3.30;;
45728;SDS011;31439;53.512;10.206;2023-05-10T01:07:46;7.32;;;3.55;;
45728;SDS011;31439;53.512;10.206;2023-05-10T01:10:13;7.00;;;4.00;;
45728;SDS011;31439;53.512;10.206;2023-05-10T01:12:40;7.55;;;3.58;;
45728;SDS011;31439;53.512;10.206;2023-05-10T01:15:07;6.15;;;3.85;;
45728;SDS011;31439;53.512;10.206;2023-05-10T01:17:37;8.02;;;3.78;;
45728;SDS011;31439;53.512;10.206;2023-05-10T01:20:05;5.50;;;3.50;;
45728;SDS011;31439;53.512;10.206;2023-05-10T01:22:40;5.95;;;3.70;;
45728;SDS011;31439;53.512;10.206;2023-05-10T01:34:13;9.43;;;3.88;;
45728;SDS011;31439;53.512;10.206;2023-05-10T01:36:48;6.40;;;3.30;;
45728;SDS011;31439;53.512;10.206;2023-05-10T01:39:22;7.47;;;3.53;;
45728;SDS011;31439;53.512;10.206;2023-05-10T01:42:07;7.22;;;3.72;;
45728;SDS011;31439;53.512;10.206;2023-05-10T01:47:50;7.20;;;3.50;;
45728;SDS011;31439;53.512;10.206;2023-05-10T01:50:34;5.45;;;3.75;;
45728;SDS011;31439;53.512;10.206;2023-05-10T01:53:02;7.50;;;3.42;;
45728;SDS011;31439;53.512;10.206;2023-05-10T01:55:33;6.75;;;3.47;;
45728;SDS011;31439;53.512;10.206;2023-05-10T01:58:08;8.27;;;3.58;;
45728;SDS011;31439;53.512;10.206;2023-05-10T02:00:39;5.50;;;3.53;;
45728;SDS011;31439;53.512;10.206;2023-05-10T02:03:08;3.88;;;3.33;;
45728;SDS011;31439;53.512;10.206;2023-05-10T02:05:36;8.35;;;3.58;;
45728;SDS011;31439;53.512;10.206;2023-05-10T02:08:05;5.68;;;3.70;;
45728;SDS011;31439;53.512;10.206;2023-05-10T02:10:33;9.48;;;3.83;;
45728;SDS011;31439;53.512;10.206;2023-05-10T02:13:00;7.72;;;3.40;;
45728;SDS011;31439;53.512;10.206;2023-05-10T02:15:27;5.18;;;3.55;;
45728;SDS011;31439;53.512;10.206;2023-05-10T02:17:55;7.78;;;3.40;;
45728;SDS011;31439;53.512;10.206;2023-05-10T02:20:22;7.38;;;3.50;;
45728;SDS011;31439;53.512;10.206;2023-05-10T02:22:50;5.38;;;3.60;;
45728;SDS011;31439;53.512;10.206;2023-05-10T02:25:19;8.15;;;3.75;;
45728;SDS011;31439;53.512;10.206;2023-05-10T02:27:46;5.97;;;3.85;;
45728;SDS011;31439;53.512;10.206;2023-05-10T02:30:13;8.18;;;4.13;;
45728;SDS011;31439;53.512;10.206;2023-05-10T02:32:39;6.80;;;3.53;;
45728;SDS011;31439;53.512;10.206;2023-05-10T02:35:06;7.25;;;3.90;;
45728;SDS011;31439;53.512;10.206;2023-05-10T02:37:33;6.28;;;3.50;;
45728;SDS011;31439;53.512;10.206;2023-05-10T02:40:00;8.77;;;3.60;;
45728;SDS011;31439;53.512;10.206;2023-05-10T02:42:28;9.65;;;3.95;;
45728;SDS011;31439;53.512;10.206;2023-05-10T02:44:59;6.20;;;3.67;;
45728;SDS011;31439;53.512;10.206;2023-05-10T02:47:27;6.63;;;3.83;;
45728;SDS011;31439;53.512;10.206;2023-05-10T02:49:53;6.60;;;3.85;;
45728;SDS011;31439;53.512;10.206;2023-05-10T02:52:21;6.85;;;3.70;;
45728;SDS011;31439;53.512;10.206;2023-05-10T02:54:54;5.30;;;3.83;;
45728;SDS011;31439;53.512;10.206;2023-05-10T02:57:23;6.95;;;4.15;;
45728;SDS011;31439;53.512;10.206;2023-05-10T02:59:52;7.65;;;3.78;;
45728;SDS011;31439;53.512;10.206;2023-05-10T03:02:18;6.00;;;3.47;;
45728;SDS011;31439;53.512;10.206;2023-05-10T03:04:45;11.55;;;3.83;;
45728;SDS011;31439;53.512;10.206;2023-05-10T03:07:10;7.63;;;4.05;;
45728;SDS011;31439;53.512;10.206;2023-05-10T03:09:36;8.20;;;4.13;;
45728;SDS011;31439;53.512;10.206;2023-05-10T03:15:24;8.52;;;3.90;;
45728;SDS011;31439;53.512;10.206;2023-05-10T03:17:35;7.95;;;3.90;;
45728;SDS011;31439;53.512;10.206;2023-05-10T03:20:09;8.55;;;4.10;;
45728;SDS011;31439;53.512;10.206;2023-05-10T03:22:55;7.05;;;3.80;;
45728;SDS011;31439;53.512;10.206;2023-05-10T03:27:58;6.25;;;3.92;;
45728;SDS011;31439;53.512;10.206;2023-05-10T03:30:27;7.22;;;4.10;;
45728;SDS011;31439;53.512;10.206;2023-05-10T03:32:54;7.55;;;3.92;;
45728;SDS011;31439;53.512;10.206;2023-05-10T03:35:19;7.53;;;3.75;;
45728;SDS011;31439;53.512;10.206;2023-05-10T03:37:45;5.55;;;3.78;;
45728;SDS011;31439;53.512;10.206;2023-05-10T03:40:11;4.97;;;3.90;;
45728;SDS011;31439;53.512;10.206;2023-05-10T03:42:37;9.40;;;4.25;;
45728;SDS011;31439;53.512;10.206;2023-05-10T03:45:03;6.57;;;4.07;;
45728;SDS011;31439;53.512;10.206;2023-05-10T03:47:29;7.28;;;3.95;;
45728;SDS011;31439;53.512;10.206;2023-05-10T03:49:55;6.18;;;3.47;;
45728;SDS011;31439;53.512;10.206;2023-05-10T03:52:20;6.32;;;3.58;;
45728;SDS011;31439;53.512;10.206;2023-05-10T03:54:46;8.98;;;3.90;;
45728;SDS011;31439;53.512;10.206;2023-05-10T03:57:11;7.30;;;4.10;;
45728;SDS011;31439;53.512;10.206;2023-05-10T03:59:37;5.38;;;3.95;;
45728;SDS011;31439;53.512;10.206;2023-05-10T04:02:03;7.47;;;3.97;;
45728;SDS011;31439;53.512;10.206;2023-05-10T04:04:28;9.68;;;4.07;;
45728;SDS011;31439;53.512;10.206;2023-05-10T04:06:54;10.65;;;4.07;;
45728;SDS011;31439;53.512;10.206;2023-05-10T04:09:20;5.95;;;4.38;;
45728;SDS011;31439;53.512;10.206;2023-05-10T04:11:45;11.48;;;4.30;;
45728;SDS011;31439;53.512;10.206;2023-05-10T04:14:11;9.45;;;4.15;;
45728;SDS011;31439;53.512;10.206;2023-05-10T04:16:40;5.47;;;3.83;;
45728;SDS011;31439;53.512;10.206;2023-05-10T04:19:05;7.53;;;4.07;;
45728;SDS011;31439;53.512;10.206;2023-05-10T04:21:31;5.10;;;3.75;;
45728;SDS011;31439;53.512;10.206;2023-05-10T04:23:57;7.90;;;3.97;;
45728;SDS011;31439;53.512;10.206;2023-05-10T04:26:23;6.18;;;3.97;;
45728;SDS011;31439;53.512;10.206;2023-05-10T04:28:50;6.25;;;3.80;;
45728;SDS011;31439;53.512;10.206;2023-05-10T04:31:16;7.30;;;4.25;;
45728;SDS011;31439;53.512;10.206;2023-05-10T04:33:42;6.53;;;3.53;;
45728;SDS011;31439;53.512;10.206;2023-05-10T04:36:07;7.38;;;4.00;;
45728;SDS011;31439;53.512;10.206;2023-05-10T04:38:33;5.15;;;3.80;;
45728;SDS011;31439;53.512;10.206;2023-05-10T04:41:06;5.65;;;4.00;;
45728;SDS011;31439;53.512;10.206;2023-05-10T04:43:32;7.13;;;3.53;;
45728;SDS011;31439;53.512;10.206;2023-05-10T04:45:58;7.13;;;4.10;;
45728;SDS011;31439;53.512;10.206;2023-05-10T04:48:24;5.70;;;3.95;;
45728;SDS011;31439;53.512;10.206;2023-05-10T04:50:50;5.93;;;3.90;;
45728;SDS011;31439;53.512;10.206;2023-05-10T04:53:15;7.40;;;4.38;;
45728;SDS011;31439;53.512;10.206;2023-05-10T04:55:41;7.10;;;3.75;;
45728;SDS011;31439;53.512;10.206;2023-05-10T04:58:07;5.85;;;4.00;;
45728;SDS011;31439;53.512;10.206;2023-05-10T05:00:33;8.52;;;4.50;;
45728;SDS011;31439;53.512;10.206;2023-05-10T05:02:59;6.55;;;4.18;;
45728;SDS011;31439;53.512;10.206;2023-05-10T05:05:24;5.25;;;4.05;;
45728;SDS011;31439;53.512;10.206;2023-05-10T05:07:50;4.72;;;3.85;;
45728;SDS011;31439;53.512;10.206;2023-05-10T05:10:16;6.65;;;3.80;;
45728;SDS011;31439;53.512;10.206;2023-05-10T05:12:41;8.82;;;3.92;;
45728;SDS011;31439;53.512;10.206;2023-05-10T05:15:07;5.30;;;3.67;;
45728;SDS011;31439;53.512;10.206;2023-05-10T05:17:34;6.13;;;3.95;;
45728;SDS011;31439;53.512;10.206;2023-05-10T05:20:00;11.63;;;4.00;;
45728;SDS011;31439;53.512;10.206;2023-05-10T05:22:26;7.97;;;4.55;;
45728;SDS011;31439;53.512;10.206;2023-05-10T05:24:55;7.45;;;4.20;;
45728;SDS011;31439;53.512;10.206;2023-05-10T05:27:23;7.70;;;3.85;;
45728;SDS011;31439;53.512;10.206;2023-05-10T05:29:54;5.57;;;3.83;;
45728;SDS011;31439;53.512;10.206;2023-05-10T05:32:20;5.35;;;3.75;;
45728;SDS011;31439;53.512;10.206;2023-05-10T05:34:46;6.10;;;3.97;;
45728;SDS011;31439;53.512;10.206;2023-05-10T05:37:13;6.88;;;3.95;;
45728;SDS011;31439;53.512;10.206;2023-05-10T05:39:43;5.68;;;3.83;;
45728;SDS011;31439;53.512;10.206;2023-05-10T05:42:09;6.90;;;4.00;;
45728;SDS011;31439;53.512;10.206;2023-05-10T05:44:36;7.95;;;3.97;;
45728;SDS011;31439;53.512;10.206;2023-05-10T05:47:02;6.45;;;3.88;;
45728;SDS011;31439;53.512;10.206;2023-05-10T05:49:28;7.03;;;3.97;;
45728;SDS011;31439;53.512;10.206;2023-05-10T05:51:54;11.98;;;4.03;;
45728;SDS011;31439;53.512;10.206;2023-05-10T05:54:19;17.30;;;5.65;;
45728;SDS011;31439;53.512;10.206;2023-05-10T05:56:45;10.93;;;4.72;;
45728;SDS011;31439;53.512;10.206;2023-05-10T05:59:11;7.15;;;4.18;;
45728;SDS011;31439;53.512;10.206;2023-05-10T06:01:36;8.60;;;3.75;;
45728;SDS011;31439;53.512;10.206;2023-05-10T06:04:02;6.55;;;4.22;;
45728;SDS011;31439;53.512;10.206;2023-05-10T06:06:28;7.50;;;4.43;;
45728;SDS011;31439;53.512;10.206;2023-05-10T06:08:54;7.30;;;4.15;;
45728;SDS011;31439;53.512;10.206;2023-05-10T06:11:20;6.10;;;3.97;;
45728;SDS011;31439;53.512;10.206;2023-05-10T06:13:48;8.18;;;3.80;;
45728;SDS011;31439;53.512;10.206;2023-05-10T06:16:15;12.63;;;4.57;;
45728;SDS011;31439;53.512;10.206;2023-05-10T06:18:40;8.88;;;4.20;;
45728;SDS011;31439;53.512;10.206;2023-05-10T06:21:06;6.55;;;4.03;;
45728;SDS011;31439;53.512;10.206;2023-05-10T06:23:32;5.07;;;3.58;;
45728;SDS011;31439;53.512;10.206;2023-05-10T06:25:57;8.20;;;3.60;;
45728;SDS011;31439;53.512;10.206;2023-05-10T06:28:23;7.07;;;4.15;;
45728;SDS011;31439;53.512;10.206;2023-05-10T06:30:49;6.20;;;3.88;;
45728;SDS011;31439;53.512;10.206;2023-05-10T06:33:15;5.75;;;3.75;;
45728;SDS011;31439;53.512;10.206;2023-05-10T06:35:41;5.18;;;3.88;;
45728;SDS011;31439;53.512;10.206;2023-05-10T06:38:06;7.57;;;4.18;;
45728;SDS011;31439;53.512;10.206;2023-05-10T06:40:32;5.90;;;3.78;;
45728;SDS011;31439;53.512;10.206;2023-05-10T06:42:58;4.93;;;3.65;;
45728;SDS011;31439;53.512;10.206;2023-05-10T06:45:23;6.10;;;3.78;;
45728;SDS011;31439;53.512;10.206;2023-05-10T06:47:49;7.45;;;4.13;;
45728;SDS011;31439;53.512;10.206;2023-05-10T06:50:15;6.90;;;3.90;;
45728;SDS011;31439;53.512;10.206;2023-05-10T06:52:40;7.30;;;3.90;;
45728;SDS011;31439;53.512;10.206;2023-05-10T06:55:06;5.82;;;3.80;;
45728;SDS011;31439;53.512;10.206;2023-05-10T06:57:33;7.22;;;4.18;;
45728;SDS011;31439;53.512;10.206;2023-05-10T06:59:59;5.53;;;3.97;;
45728;SDS011;31439;53.512;10.206;2023-05-10T07:02:24;5.05;;;3.50;;
45728;SDS011;31439;53.512;10.206;2023-05-10T07:04:50;6.70;;;3.10;;
45728;SDS011;31439;53.512;10.206;2023-05-10T07:07:17;8.23;;;3.83;;
45728;SDS011;31439;53.512;10.206;2023-05-10T07:09:42;6.47;;;4.28;;
45728;SDS011;31439;53.512;10.206;2023-05-10T07:12:08;4.68;;;3.95;;
45728;SDS011;31439;53.512;10.206;2023-05-10T07:14:34;5.18;;;4.22;;
45728;SDS011;31439;53.512;10.206;2023-05-10T07:16:59;7.70;;;4.40;;
45728;SDS011;31439;53.512;10.206;2023-05-10T07:19:25;5.20;;;3.63;;
45728;SDS011;31439;53.512;10.206;2023-05-10T07:21:51;5.90;;;4.10;;
45728;SDS011;31439;53.512;10.206;2023-05-10T07:24:17;7.72;;;3.97;;
45728;SDS011;31439;53.512;10.206;2023-05-10T07:26:42;6.57;;;4.03;;
45728;SDS011;31439;53.512;10.206;2023-05-10T07:29:08;8.57;;;3.88;;
45728;SDS011;31439;53.512;10.206;2023-05-10T07:31:34;8.93;;;3.85;;
45728;SDS011;31439;53.512;10.206;2023-05-10T07:34:00;5.40;;;3.97;;
45728;SDS011;31439;53.512;10.206;2023-05-10T07:36:26;5.55;;;3.65;;
45728;SDS011;31439;53.512;10.206;2023-05-10T07:38:52;6.55;;;3.60;;
45728;SDS011;31439;53.512;10.206;2023-05-10T07:41:18;6.55;;;3.78;;
45728;SDS011;31439;53.512;10.206;2023-05-10T07:43:44;9.05;;;3.60;;
45728;SDS011;31439;53.512;10.206;2023-05-10T07:46:09;8.57;;;4.03;;
45728;SDS011;31439;53.512;10.206;2023-05-10T07:48:36;5.13;;;3.80;;
45728;SDS011;31439;53.512;10.206;2023-05-10T07:51:05;7.10;;;3.97;;
45728;SDS011;31439;53.512;10.206;2023-05-10T07:53:35;7.32;;;3.95;;
45728;SDS011;31439;53.512;10.206;2023-05-10T07:58:55;6.55;;;4.15;;
45728;SDS011;31439;53.512;10.206;2023-05-10T08:01:24;12.18;;;4.03;;
45728;SDS011;31439;53.512;10.206;2023-05-10T08:03:51;6.18;;;3.90;;
45728;SDS011;31439;53.512;10.206;2023-05-10T08:06:22;7.43;;;3.88;;
45728;SDS011;31439;53.512;10.206;2023-05-10T08:08:48;5.63;;;3.78;;
45728;SDS011;31439;53.512;10.206;2023-05-10T08:11:18;6.18;;;3.60;;
45728;SDS011;31439;53.512;10.206;2023-05-10T08:13:45;7.25;;;3.92;;
45728;SDS011;31439;53.512;10.206;2023-05-10T08:16:11;5.78;;;3.67;;
45728;SDS011;31439;53.512;10.206;2023-05-10T08:18:37;7.95;;;3.97;;
45728;SDS011;31439;53.512;10.206;2023-05-10T08:21:03;5.90;;;3.90;;
45728;SDS011;31439;53.512;10.206;2023-05-10T08:23:29;4.88;;;3.60;;
45728;SDS011;31439;53.512;10.206;2023-05-10T08:25:55;4.63;;;3.50;;
45728;SDS011;31439;53.512;10.206;2023-05-10T08:28:21;6.72;;;3.47;;
45728;SDS011;31439;53.512;10.206;2023-05-10T08:30:47;5.95;;;3.65;;
45728;SDS011;31439;53.512;10.206;2023-05-10T08:33:14;9.57;;;3.97;;
45728;SDS011;31439;53.512;10.206;2023-05-10T08:35:40;8.65;;;4.30;;
45728;SDS011;31439;53.512;10.206;2023-05-10T08:38:06;6.80;;;3.85;;
45728;SDS011;31439;53.512;10.206;2023-05-10T08:40:32;5.32;;;4.20;;
45728;SDS011;31439;53.512;10.206;2023-05-10T08:43:05;7.25;;;4.10;;
45728;SDS011;31439;53.512;10.206;2023-05-10T08:45:33;6.95;;;3.85;;
45728;SDS011;31439;53.512;10.206;2023-05-10T08:48:02;7.28;;;4.10;;
45728;SDS011;31439;53.512;10.206;2023-05-10T08:50:31;5.05;;;3.90;;
45728;SDS011;31439;53.512;10.206;2023-05-10T08:52:59;5.78;;;4.20;;
45728;SDS011;31439;53.512;10.206;2023-05-10T08:55:26;5.93;;;3.75;;
45728;SDS011;31439;53.512;10.206;2023-05-10T08:57:53;7.38;;;4.35;;
45728;SDS011;31439;53.512;10.206;2023-05-10T09:00:18;6.43;;;4.25;;
45728;SDS011;31439;53.512;10.206;2023-05-10T09:02:45;7.35;;;4.28;;
45728;SDS011;31439;53.512;10.206;2023-05-10T09:05:11;7.70;;;4.00;;
45728;SDS011;31439;53.512;10.206;2023-05-10T09:07:37;7.97;;;3.97;;
45728;SDS011;31439;53.512;10.206;2023-05-10T09:10:04;6.32;;;4.50;;
45728;SDS011;31439;53.512;10.206;2023-05-10T09:12:30;6.30;;;4.18;;
45728;SDS011;31439;53.512;10.206;2023-05-10T09:14:57;6.13;;;4.05;;
45728;SDS011;31439;53.512;10.206;2023-05-10T09:17:24;6.63;;;4.53;;
45728;SDS011;31439;53.512;10.206;2023-05-10T09:20:01;7.28;;;4.13;;
45728;SDS011;31439;53.512;10.206;2023-05-10T09:22:29;6.10;;;4.03;;
45728;SDS011;31439;53.512;10.206;2023-05-10T09:25:08;9.73;;;4.18;;
45728;SDS011;31439;53.512;10.206;2023-05-10T09:27:36;7.90;;;4.88;;
45728;SDS011;31439;53.512;10.206;2023-05-10T09:30:03;6.97;;;3.80;;
45728;SDS011;31439;53.512;10.206;2023-05-10T09:32:36;7.20;;;4.40;;
45728;SDS011;31439;53.512;10.206;2023-05-10T09:35:13;7.95;;;4.70;;
45728;SDS011;31439;53.512;10.206;2023-05-10T09:37:41;8.57;;;4.45;;
45728;SDS011;31439;53.512;10.206;2023-05-10T09:40:12;6.72;;;4.13;;
45728;SDS011;31439;53.512;10.206;2023-05-10T09:42:40;9.52;;;4.35;;
45728;SDS011;31439;53.512;10.206;2023-05-10T09:45:07;7.72;;;4.43;;
45728;SDS011;31439;53.512;10.206;2023-05-10T09:47:33;5.95;;;4.20;;
45728;SDS011;31439;53.512;10.206;2023-05-10T09:50:00;8.00;;;4.47;;
45728;SDS011;31439;53.512;10.206;2023-05-10T09:52:29;9.25;;;4.38;;
45728;SDS011;31439;53.512;10.206;2023-05-10T09:55:13;5.93;;;4.20;;
45728;SDS011;31439;53.512;10.206;2023-05-10T09:57:39;7.45;;;4.25;;
45728;SDS011;31439;53.512;10.206;2023-05-10T10:00:06;7.38;;;4.65;;
45728;SDS011;31439;53.512;10.206;2023-05-10T10:02:32;5.75;;;4.35;;
45728;SDS011;31439;53.512;10.206;2023-05-10T10:05:00;6.07;;;4.50;;
45728;SDS011;31439;53.512;10.206;2023-05-10T10:07:27;8.80;;;4.65;;
45728;SDS011;31439;53.512;10.206;2023-05-10T10:09:54;6.65;;;4.97;;
45728;SDS011;31439;53.512;10.206;2023-05-10T10:12:20;6.15;;;4.78;;
45728;SDS011;31439;53.512;10.206;2023-05-10T10:14:49;8.10;;;4.93;;
45728;SDS011;31439;53.512;10.206;2023-05-10T10:17:16;7.28;;;4.60;;
45728;SDS011;31439;53.512;10.206;2023-05-10T10:19:42;10.95;;;4.70;;
45728;SDS011;31439;53.512;10.206;2023-05-10T10:22:08;7.57;;;5.15;;
45728;SDS011;31439;53.512;10.206;2023-05-10T10:24:37;8.38;;;5.13;;
45728;SDS011;31439;53.512;10.206;2023-05-10T10:27:26;12.63;;;6.13;;
45728;SDS011;31439;53.512;10.206;2023-05-10T10:30:17;7.93;;;6.50;;
45728;SDS011;31439;53.512;10.206;2023-05-10T10:35:31;9.43;;;6.72;;
45728;SDS011;31439;53.512;10.206;2023-05-10T10:37:57;9.27;;;6.55;;
45728;SDS011;31439;53.512;10.206;2023-05-10T10:42:50;10.23;;;7.20;;
45728;SDS011;31439;53.512;10.206;2023-05-10T10:45:16;10.32;;;7.13;;
45728;SDS011;31439;53.512;10.206;2023-05-10T10:47:42;10.48;;;7.60;;
45728;SDS011;31439;53.512;10.206;2023-05-10T10:50:10;9.82;;;7.60;;
45728;SDS011;31439;53.512;10.206;2023-05-10T10:52:40;11.13;;;7.47;;
45728;SDS011;31439;53.512;10.206;2023-05-10T11:08:02;11.40;;;8.60;;
45728;SDS011;31439;53.512;10.206;2023-05-10T11:10:36;9.18;;;7.57;;
45728;SDS011;31439;53.512;10.206;2023-05-10T11:13:06;10.63;;;7.60;;
45728;SDS011;31439;53.512;10.206;2023-05-10T11:15:36;9.45;;;7.50;;
45728;SDS011;31439;53.512;10.206;2023-05-10T11:21:05;10.43;;;7.22;;
45728;SDS011;31439;53.512;10.206;2023-05-10T11:23:48;9.95;;;7.40;;
45728;SDS011;31439;53.512;10.206;2023-05-10T11:26:15;8.20;;;7.15;;
45728;SDS011;31439;53.512;10.206;2023-05-10T11:28:44;8.85;;;7.53;;
45728;SDS011;31439;53.512;10.206;2023-05-10T11:31:14;8.30;;;7.40;;
45728;SDS011;31439;53.512;10.206;2023-05-10T11:33:44;11.98;;;7.88;;
45728;SDS011;31439;53.512;10.206;2023-05-10T11:36:11;8.40;;;7.45;;
45728;SDS011;31439;53.512;10.206;2023-05-10T11:38:38;9.90;;;8.50;;
45728;SDS011;31439;53.512;10.206;2023-05-10T11:41:04;10.82;;;8.18;;
45728;SDS011;31439;53.512;10.206;2023-05-10T11:43:31;11.63;;;8.75;;
45728;SDS011;31439;53.512;10.206;2023-05-10T11:45:57;11.65;;;8.90;;
45728;SDS011;31439;53.512;10.206;2023-05-10T11:48:22;10.30;;;8.95;;
45728;SDS011;31439;53.512;10.206;2023-05-10T11:50:49;11.65;;;9.27;;
45728;SDS011;31439;53.512;10.206;2023-05-10T11:53:15;11.30;;;8.57;;
45728;SDS011;31439;53.512;10.206;2023-05-10T11:55:41;12.63;;;9.05;;
45728;SDS011;31439;53.512;10.206;2023-05-10T11:58:06;12.25;;;8.70;;
45728;SDS011;31439;53.512;10.206;2023-05-10T12:00:32;10.98;;;9.13;;
45728;SDS011;31439;53.512;10.206;2023-05-10T12:03:00;10.40;;;8.77;;
45728;SDS011;31439;53.512;10.206;2023-05-10T12:05:26;10.30;;;8.70;;
45728;SDS011;31439;53.512;10.206;2023-05-10T12:08:10;11.75;;;9.55;;
45728;SDS011;31439;53.512;10.206;2023-05-10T12:10:39;9.82;;;7.60;;
45728;SDS011;31439;53.512;10.206;2023-05-10T12:13:05;8.23;;;6.35;;
45728;SDS011;31439;53.512;10.206;2023-05-10T12:15:35;11.43;;;8.63;;
45728;SDS011;31439;53.512;10.206;2023-05-10T12:18:01;10.98;;;8.60;;
45728;SDS011;31439;53.512;10.206;2023-05-10T12:20:27;11.80;;;8.40;;
45728;SDS011;31439;53.512;10.206;2023-05-10T12:22:54;11.90;;;8.88;;
45728;SDS011;31439;53.512;10.206;2023-05-10T12:25:22;11.13;;;9.20;;
45728;SDS011;31439;53.512;10.206;2023-05-10T12:27:52;13.10;;;9.55;;
45728;SDS011;31439;53.512;10.206;2023-05-10T12:30:19;12.27;;;9.18;;
45728;SDS011;31439;53.512;10.206;2023-05-10T12:32:45;11.98;;;9.50;;
45728;SDS011;31439;53.512;10.206;2023-05-10T12:35:11;11.40;;;9.50;;
45728;SDS011;31439;53.512;10.206;2023-05-10T12:37:37;14.15;;;10.15;;
45728;SDS011;31439;53.512;10.206;2023-05-10T12:40:07;12.25;;;9.90;;
45728;SDS011;31439;53.512;10.206;2023-05-10T12:42:34;12.02;;;8.82;;
45728;SDS011;31439;53.512;10.206;2023-05-10T12:45:01;10.57;;;9.40;;
45728;SDS011;31439;53.512;10.206;2023-05-10T12:47:27;10.88;;;8.73;;
45728;SDS011;31439;53.512;10.206;2023-05-10T12:49:53;12.15;;;8.45;;
45728;SDS011;31439;53.512;10.206;2023-05-10T12:52:25;10.82;;;8.38;;
45728;SDS011;31439;53.512;10.206;2023-05-10T12:54:52;8.63;;;7.72;;
45728;SDS011;31439;53.512;10.206;2023-05-10T12:57:19;9.80;;;8.23;;
45728;SDS011;31439;53.512;10.206;2023-05-10T12:59:45;10.05;;;7.50;;
45728;SDS011;31439;53.512;10.206;2023-05-10T13:02:11;9.43;;;7.50;;
45728;SDS011;31439;53.512;10.206;2023-05-10T13:04:39;10.38;;;7.55;;
45728;SDS011;31439;53.512;10.206;2023-05-10T13:07:06;10.27;;;7.68;;
45728;SDS011;31439;53.512;10.206;2023-05-10T13:09:32;8.82;;;7.43;;
45728;SDS011;31439;53.512;10.206;2023-05-10T13:11:58;8.32;;;7.40;;
45728;SDS011;31439;53.512;10.206;2023-05-10T13:14:24;12.13;;;7.72;;
45728;SDS011;31439;53.512;10.206;2023-05-10T13:16:50;10.27;;;7.10;;
45728;SDS011;31439;53.512;10.206;2023-05-10T13:19:16;10.82;;;6.95;;
45728;SDS011;31439;53.512;10.206;2023-05-10T13:21:43;7.75;;;6.57;;
45728;SDS011;31439;53.512;10.206;2023-05-10T13:24:09;10.05;;;7.05;;
45728;SDS011;31439;53.512;10.206;2023-05-10T13:26:36;9.10;;;7.13;;
45728;SDS011;31439;53.512;10.206;2023-05-10T13:29:02;6.97;;;5.82;;
45728;SDS011;31439;53.512;10.206;2023-05-10T13:31:28;7.65;;;5.32;;
45728;SDS011;31439;53.512;10.206;2023-05-10T13:33:55;7.72;;;5.72;;
45728;SDS011;31439;53.512;10.206;2023-05-10T13:36:21;7.95;;;5.57;;
45728;SDS011;31439;53.512;10.206;2023-05-10T13:38:47;6.95;;;5.50;;
45728;SDS011;31439;53.512;10.206;2023-05-10T13:41:13;7.78;;;5.65;;
45728;SDS011;31439;53.512;10.206;2023-05-10T13:43:39;8.45;;;5.75;;
45728;SDS011;31439;53.512;10.206;2023-05-10T13:46:05;7.90;;;6.20;;
45728;SDS011;31439;53.512;10.206;2023-05-10T13:48:31;7.18;;;6.32;;
45728;SDS011;31439;53.512;10.206;2023-05-10T13:50:57;9.40;;;7.47;;
45728;SDS011;31439;53.512;10.206;2023-05-10T13:53:23;10.13;;;7.07;;
45728;SDS011;31439;53.512;10.206;2023-05-10T13:55:50;8.68;;;6.43;;
45728;SDS011;31439;53.512;10.206;2023-05-10T13:58:16;6.85;;;5.60;;
45728;SDS011;31439;53.512;10.206;2023-05-10T14:00:42;5.68;;;5.03;;
45728;SDS011;31439;53.512;10.206;2023-05-10T14:03:08;7.32;;;5.78;;
45728;SDS011;31439;53.512;10.206;2023-05-10T14:05:35;7.47;;;6.35;;
45728;SDS011;31439;53.512;10.206;2023-05-10T14:08:01;6.63;;;5.60;;
45728;SDS011;31439;53.512;10.206;2023-05-10T14:10:28;6.43;;;5.63;;
45728;SDS011;31439;53.512;10.206;2023-05-10T14:12:55;7.15;;;5.88;;
45728;SDS011;31439;53.512;10.206;2023-05-10T14:15:21;6.47;;;5.80;;
45728;SDS011;31439;53.512;10.206;2023-05-10T14:17:47;7.25;;;6.03;;
45728;SDS011;31439;53.512;10.206;2023-05-10T14:20:13;7.03;;;6.32;;
45728;SDS011;31439;53.512;10.206;2023-05-10T14:22:39;7.78;;;6.82;;
45728;SDS011;31439;53.512;10.206;2023-05-10T14:25:05;7.13;;;6.43;;
45728;SDS011;31439;53.512;10.206;2023-05-10T14:27:31;7.13;;;6.40;;
45728;SDS011;31439;53.512;10.206;2023-05-10T14:29:57;7.45;;;6.03;;
45728;SDS011;31439;53.512;10.206;2023-05-10T14:32:23;6.57;;;5.88;;
45728;SDS011;31439;53.512;10.206;2023-05-10T14:34:49;8.77;;;6.70;;
45728;SDS011;31439;53.512;10.206;2023-05-10T14:37:15;7.80;;;6.28;;
45728;SDS011;31439;53.512;10.206;2023-05-10T14:39:41;8.35;;;6.90;;
45728;SDS011;31439;53.512;10.206;2023-05-10T14:42:07;6.88;;;6.13;;
45728;SDS011;31439;53.512;10.206;2023-05-10T14:44:34;8.52;;;7.00;;
45728;SDS011;31439;53.512;10.206;2023-05-10T14:47:00;7.07;;;6.13;;
45728;SDS011;31439;53.512;10.206;2023-05-10T14:49:26;6.93;;;5.80;;
45728;SDS011;31439;53.512;10.206;2023-05-10T14:51:52;7.10;;;6.40;;
45728;SDS011;31439;53.512;10.206;2023-05-10T14:54:18;6.60;;;5.63;;
45728;SDS011;31439;53.512;10.206;2023-05-10T14:56:44;7.05;;;6.20;;
45728;SDS011;31439;53.512;10.206;2023-05-10T14:59:11;11.20;;;7.35;;
45728;SDS011;31439;53.512;10.206;2023-05-10T15:01:37;7.78;;;6.78;;
45728;SDS011;31439;53.512;10.206;2023-05-10T15:04:03;7.65;;;6.85;;
45728;SDS011;31439;53.512;10.206;2023-05-10T15:06:30;7.80;;;6.85;;
45728;SDS011;31439;53.512;10.206;2023-05-10T15:08:56;8.55;;;6.72;;
45728;SDS011;31439;53.512;10.206;2023-05-10T15:11:22;13.40;;;6.82;;
45728;SDS011;31439;53.512;10.206;2023-05-10T15:13:48;6.78;;;6.07;;
45728;SDS011;31439;53.512;10.206;2023-05-10T15:16:15;7.13;;;5.88;;